Delta Virtual Airport Information Service

New York LaGuardia Airport

ICAO: KLGA Country: United States
Latitude: 40.7772 Longitude: -73.8726
Latest Arrival : JBU1231 (KBOS-KLGA) Latest Departure : DAC835 (KLGA-CYUL)


WX CaptureLIVE
Data provided by noaa.gov | Fetched at 16:13:59

METAR : KLGA 242051Z 10006KT 10SM BKN033 BKN250 20/11 A3022 RMK AO2 SLP234 T02000111 56012

TAF : KLGA 241946Z 2420/2524 04009KT P6SM SCT025 BKN035 FM242100 14009KT P6SM SCT025 FM250200 09007KT P6SM BKN020 FM250600 06005KT P6SM SCT008 OVC015 FM250900 05005KT P6SM BKN008 FM251400 05006KT P6SM BKN020 FM251700 08007KT P6SM SCT025 FM252000 11008KT P6SM SCT030


Runway Data for KLGA
Data provided by openaviationdata.com

Runway ID Mag Var Hdg Length Elevation Surface ILS Freq ILS Id ILS Slope
4 -13 45° 7000 ft 22 ft Asphalt 110.5 ILGA 3
13 -13 135° 6994 ft 22 ft Asphalt 108.5 IGDI 3
22 -13 225° 7000 ft 22 ft Asphalt 110.5 IURD 3
31 -13 315° 6994 ft 22 ft Asphalt 108.5 IPZV 0

New York LaGuardia Airport, United States
Use only for reference purposes



Not for navigational purposes.